sensor_id;sensor_type;location;lat;lon;timestamp;P1;durP1;ratioP1;P2;durP2;ratioP2
79779;SDS011;69258;52.050;10.334;2023-05-16T00:03:46;2.10;;;2.00;;
79779;SDS011;69258;52.050;10.334;2023-05-16T00:18:48;2.00;;;1.90;;
79779;SDS011;69258;52.050;10.334;2023-05-16T00:33:50;2.20;;;2.03;;
79779;SDS011;69258;52.050;10.334;2023-05-16T00:48:52;2.10;;;2.00;;
79779;SDS011;69258;52.050;10.334;2023-05-16T01:03:53;2.10;;;2.00;;
79779;SDS011;69258;52.050;10.334;2023-05-16T01:18:59;1.93;;;1.83;;
79779;SDS011;69258;52.050;10.334;2023-05-16T01:34:28;2.10;;;2.00;;
79779;SDS011;69258;52.050;10.334;2023-05-16T01:49:34;2.20;;;2.10;;
79779;SDS011;69258;52.050;10.334;2023-05-16T02:04:39;1.90;;;1.80;;
79779;SDS011;69258;52.050;10.334;2023-05-16T02:19:41;2.10;;;2.00;;
79779;SDS011;69258;52.050;10.334;2023-05-16T02:34:43;2.10;;;2.00;;
79779;SDS011;69258;52.050;10.334;2023-05-16T02:49:44;2.47;;;2.27;;
79779;SDS011;69258;52.050;10.334;2023-05-16T03:04:46;2.10;;;2.00;;
79779;SDS011;69258;52.050;10.334;2023-05-16T03:19:47;2.17;;;2.00;;
79779;SDS011;69258;52.050;10.334;2023-05-16T03:34:49;2.00;;;1.90;;
79779;SDS011;69258;52.050;10.334;2023-05-16T03:49:51;2.20;;;2.10;;
79779;SDS011;69258;52.050;10.334;2023-05-16T04:04:53;2.17;;;2.07;;
79779;SDS011;69258;52.050;10.334;2023-05-16T04:19:55;2.20;;;2.10;;
79779;SDS011;69258;52.050;10.334;2023-05-16T04:34:56;1.87;;;1.77;;
79779;SDS011;69258;52.050;10.334;2023-05-16T04:49:58;2.10;;;2.00;;
79779;SDS011;69258;52.050;10.334;2023-05-16T05:05:00;2.00;;;1.90;;
79779;SDS011;69258;52.050;10.334;2023-05-16T05:20:02;2.10;;;2.00;;
79779;SDS011;69258;52.050;10.334;2023-05-16T05:35:04;2.00;;;1.90;;
79779;SDS011;69258;52.050;10.334;2023-05-16T05:50:06;2.00;;;1.90;;
79779;SDS011;69258;52.050;10.334;2023-05-16T06:05:09;2.07;;;1.97;;
79779;SDS011;69258;52.050;10.334;2023-05-16T06:20:11;2.00;;;1.90;;
79779;SDS011;69258;52.050;10.334;2023-05-16T06:35:13;1.90;;;1.80;;
79779;SDS011;69258;52.050;10.334;2023-05-16T06:50:15;1.90;;;1.80;;
79779;SDS011;69258;52.050;10.334;2023-05-16T07:05:16;1.97;;;1.87;;
79779;SDS011;69258;52.050;10.334;2023-05-16T07:20:18;1.90;;;1.80;;
79779;SDS011;69258;52.050;10.334;2023-05-16T07:35:20;1.80;;;1.70;;
79779;SDS011;69258;52.050;10.334;2023-05-16T07:50:22;2.13;;;2.00;;
79779;SDS011;69258;52.050;10.334;2023-05-16T08:05:24;1.87;;;1.77;;
79779;SDS011;69258;52.050;10.334;2023-05-16T08:20:26;1.87;;;1.77;;
79779;SDS011;69258;52.050;10.334;2023-05-16T08:35:28;1.90;;;1.70;;
79779;SDS011;69258;52.050;10.334;2023-05-16T08:50:31;1.80;;;1.70;;
79779;SDS011;69258;52.050;10.334;2023-05-16T09:05:33;1.90;;;1.80;;
79779;SDS011;69258;52.050;10.334;2023-05-16T09:20:35;1.73;;;1.63;;
79779;SDS011;69258;52.050;10.334;2023-05-16T09:35:44;1.77;;;1.67;;
79779;SDS011;69258;52.050;10.334;2023-05-16T09:50:47;2.07;;;1.87;;
79779;SDS011;69258;52.050;10.334;2023-05-16T10:05:50;1.80;;;1.70;;
79779;SDS011;69258;52.050;10.334;2023-05-16T10:20:53;1.60;;;1.50;;
79779;SDS011;69258;52.050;10.334;2023-05-16T10:35:56;1.87;;;1.70;;
79779;SDS011;69258;52.050;10.334;2023-05-16T10:50:59;2.97;;;1.90;;
79779;SDS011;69258;52.050;10.334;2023-05-16T11:06:01;2.03;;;1.60;;
79779;SDS011;69258;52.050;10.334;2023-05-16T11:21:04;1.60;;;1.50;;
79779;SDS011;69258;52.050;10.334;2023-05-16T11:36:06;1.80;;;1.43;;
79779;SDS011;69258;52.050;10.334;2023-05-16T11:51:11;1.50;;;1.40;;
79779;SDS011;69258;52.050;10.334;2023-05-16T12:06:15;2.17;;;1.70;;
79779;SDS011;69258;52.050;10.334;2023-05-16T12:21:16;2.30;;;1.60;;
79779;SDS011;69258;52.050;10.334;2023-05-16T12:36:18;1.73;;;1.40;;
79779;SDS011;69258;52.050;10.334;2023-05-16T12:51:20;2.57;;;1.50;;
79779;SDS011;69258;52.050;10.334;2023-05-16T13:06:22;1.30;;;1.20;;
79779;SDS011;69258;52.050;10.334;2023-05-16T13:21:24;1.60;;;1.47;;
79779;SDS011;69258;52.050;10.334;2023-05-16T13:36:25;1.60;;;1.20;;
79779;SDS011;69258;52.050;10.334;2023-05-16T13:51:31;1.60;;;1.50;;
79779;SDS011;69258;52.050;10.334;2023-05-16T14:06:33;2.40;;;1.30;;
79779;SDS011;69258;52.050;10.334;2023-05-16T14:21:35;3.60;;;1.63;;
79779;SDS011;69258;52.050;10.334;2023-05-16T14:36:36;2.17;;;1.40;;
79779;SDS011;69258;52.050;10.334;2023-05-16T14:51:38;1.83;;;1.40;;
79779;SDS011;69258;52.050;10.334;2023-05-16T15:06:40;1.30;;;1.20;;
79779;SDS011;69258;52.050;10.334;2023-05-16T15:21:42;1.67;;;1.20;;
79779;SDS011;69258;52.050;10.334;2023-05-16T15:36:43;1.20;;;1.00;;
79779;SDS011;69258;52.050;10.334;2023-05-16T15:51:45;1.47;;;1.20;;
79779;SDS011;69258;52.050;10.334;2023-05-16T16:06:48;1.37;;;1.27;;
79779;SDS011;69258;52.050;10.334;2023-05-16T16:21:49;1.57;;;1.20;;
79779;SDS011;69258;52.050;10.334;2023-05-16T16:36:51;1.60;;;1.17;;
79779;SDS011;69258;52.050;10.334;2023-05-16T16:51:53;2.00;;;1.20;;
79779;SDS011;69258;52.050;10.334;2023-05-16T17:06:55;1.83;;;1.33;;
79779;SDS011;69258;52.050;10.334;2023-05-16T17:22:00;1.37;;;1.17;;
79779;SDS011;69258;52.050;10.334;2023-05-16T17:37:01;1.03;;;1.00;;
79779;SDS011;69258;52.050;10.334;2023-05-16T17:52:06;1.03;;;1.03;;
79779;SDS011;69258;52.050;10.334;2023-05-16T18:07:08;2.73;;;1.17;;
79779;SDS011;69258;52.050;10.334;2023-05-16T18:22:10;1.90;;;1.10;;
79779;SDS011;69258;52.050;10.334;2023-05-16T18:37:12;1.47;;;1.30;;
79779;SDS011;69258;52.050;10.334;2023-05-16T18:52:14;1.20;;;1.00;;
79779;SDS011;69258;52.050;10.334;2023-05-16T19:07:15;1.47;;;1.10;;
79779;SDS011;69258;52.050;10.334;2023-05-16T19:22:17;1.30;;;1.03;;
79779;SDS011;69258;52.050;10.334;2023-05-16T19:37:19;0.90;;;0.90;;
79779;SDS011;69258;52.050;10.334;2023-05-16T19:52:21;1.13;;;0.97;;
79779;SDS011;69258;52.050;10.334;2023-05-16T20:07:23;1.70;;;1.03;;
79779;SDS011;69258;52.050;10.334;2023-05-16T20:22:25;1.10;;;1.00;;
79779;SDS011;69258;52.050;10.334;2023-05-16T20:37:26;1.20;;;1.03;;
79779;SDS011;69258;52.050;10.334;2023-05-16T20:52:28;1.60;;;1.00;;
79779;SDS011;69258;52.050;10.334;2023-05-16T21:07:30;1.13;;;1.00;;
79779;SDS011;69258;52.050;10.334;2023-05-16T21:22:31;1.43;;;1.10;;
79779;SDS011;69258;52.050;10.334;2023-05-16T21:37:33;0.97;;;0.90;;
79779;SDS011;69258;52.050;10.334;2023-05-16T21:52:35;1.33;;;1.10;;
79779;SDS011;69258;52.050;10.334;2023-05-16T22:07:38;0.90;;;0.90;;
79779;SDS011;69258;52.050;10.334;2023-05-16T22:22:39;1.37;;;1.00;;
79779;SDS011;69258;52.050;10.334;2023-05-16T22:37:41;1.30;;;1.20;;
79779;SDS011;69258;52.050;10.334;2023-05-16T22:52:43;1.30;;;1.10;;
79779;SDS011;69258;52.050;10.334;2023-05-16T23:07:45;1.17;;;1.07;;
79779;SDS011;69258;52.050;10.334;2023-05-16T23:22:47;1.17;;;1.10;;
79779;SDS011;69258;52.050;10.334;2023-05-16T23:37:49;1.17;;;1.07;;
79779;SDS011;69258;52.050;10.334;2023-05-16T23:52:50;1.00;;;1.00;;
